sensor_id;sensor_type;location;lat;lon;timestamp;P1;durP1;ratioP1;P2;durP2;ratioP2
9040;SDS011;4555;49.918;7.012;2022-09-03T00:00:44;0.13;;;0.13;;
9040;SDS011;4555;49.918;7.012;2022-09-03T00:03:19;1.23;;;0.40;;
9040;SDS011;4555;49.918;7.012;2022-09-03T00:06:09;0.43;;;0.43;;
9040;SDS011;4555;49.918;7.012;2022-09-03T00:08:50;0.30;;;0.30;;
9040;SDS011;4555;49.918;7.012;2022-09-03T00:11:28;0.10;;;0.10;;
9040;SDS011;4555;49.918;7.012;2022-09-03T00:16:39;0.27;;;0.27;;
9040;SDS011;4555;49.918;7.012;2022-09-03T00:19:21;0.30;;;0.30;;
9040;SDS011;4555;49.918;7.012;2022-09-03T00:21:58;0.47;;;0.47;;
9040;SDS011;4555;49.918;7.012;2022-09-03T00:24:27;0.23;;;0.23;;
9040;SDS011;4555;49.918;7.012;2022-09-03T00:26:59;0.47;;;0.47;;
9040;SDS011;4555;49.918;7.012;2022-09-03T00:29:35;0.40;;;0.40;;
9040;SDS011;4555;49.918;7.012;2022-09-03T00:32:16;0.17;;;0.17;;
9040;SDS011;4555;49.918;7.012;2022-09-03T00:34:50;0.10;;;0.10;;
9040;SDS011;4555;49.918;7.012;2022-09-03T00:37:21;0.20;;;0.20;;
9040;SDS011;4555;49.918;7.012;2022-09-03T00:39:46;0.27;;;0.27;;
9040;SDS011;4555;49.918;7.012;2022-09-03T00:42:19;0.50;;;0.50;;
9040;SDS011;4555;49.918;7.012;2022-09-03T00:50:30;0.87;;;0.50;;
9040;SDS011;4555;49.918;7.012;2022-09-03T00:53:14;1.93;;;0.50;;
9040;SDS011;4555;49.918;7.012;2022-09-03T01:04:27;0.10;;;0.10;;
9040;SDS011;4555;49.918;7.012;2022-09-03T01:24:43;1.40;;;0.30;;
9040;SDS011;4555;49.918;7.012;2022-09-03T01:30:26;0.40;;;0.40;;
9040;SDS011;4555;49.918;7.012;2022-09-03T01:32:57;0.20;;;0.20;;
9040;SDS011;4555;49.918;7.012;2022-09-03T01:35:47;0.40;;;0.40;;
9040;SDS011;4555;49.918;7.012;2022-09-03T01:43:48;0.40;;;0.40;;
9040;SDS011;4555;49.918;7.012;2022-09-03T01:46:40;0.60;;;0.60;;
9040;SDS011;4555;49.918;7.012;2022-09-03T01:51:49;0.20;;;0.20;;
9040;SDS011;4555;49.918;7.012;2022-09-03T02:00:09;0.20;;;0.20;;
9040;SDS011;4555;49.918;7.012;2022-09-03T02:02:38;0.50;;;0.43;;
9040;SDS011;4555;49.918;7.012;2022-09-03T02:05:10;0.17;;;0.17;;
9040;SDS011;4555;49.918;7.012;2022-09-03T02:07:49;0.17;;;0.17;;
9040;SDS011;4555;49.918;7.012;2022-09-03T02:10:21;0.40;;;0.40;;
9040;SDS011;4555;49.918;7.012;2022-09-03T02:13:01;0.17;;;0.17;;
9040;SDS011;4555;49.918;7.012;2022-09-03T02:15:34;0.20;;;0.20;;
9040;SDS011;4555;49.918;7.012;2022-09-03T02:18:03;0.47;;;0.47;;
9040;SDS011;4555;49.918;7.012;2022-09-03T02:20:35;0.33;;;0.30;;
9040;SDS011;4555;49.918;7.012;2022-09-03T02:23:02;0.20;;;0.20;;
9040;SDS011;4555;49.918;7.012;2022-09-03T02:25:29;0.10;;;0.10;;
9040;SDS011;4555;49.918;7.012;2022-09-03T02:28:00;0.30;;;0.30;;
9040;SDS011;4555;49.918;7.012;2022-09-03T02:30:26;0.50;;;0.50;;
9040;SDS011;4555;49.918;7.012;2022-09-03T02:32:52;0.20;;;0.20;;
9040;SDS011;4555;49.918;7.012;2022-09-03T02:35:18;0.30;;;0.30;;
9040;SDS011;4555;49.918;7.012;2022-09-03T02:37:43;0.00;;;0.00;;
9040;SDS011;4555;49.918;7.012;2022-09-03T02:40:09;0.30;;;0.30;;
9040;SDS011;4555;49.918;7.012;2022-09-03T02:42:36;0.40;;;0.40;;
9040;SDS011;4555;49.918;7.012;2022-09-03T02:47:46;0.40;;;0.20;;
9040;SDS011;4555;49.918;7.012;2022-09-03T02:50:16;0.20;;;0.20;;
9040;SDS011;4555;49.918;7.012;2022-09-03T02:52:41;0.50;;;0.50;;
9040;SDS011;4555;49.918;7.012;2022-09-03T02:55:07;0.20;;;0.17;;
9040;SDS011;4555;49.918;7.012;2022-09-03T02:57:33;0.20;;;0.20;;
9040;SDS011;4555;49.918;7.012;2022-09-03T02:59:59;0.37;;;0.37;;
9040;SDS011;4555;49.918;7.012;2022-09-03T03:02:24;0.40;;;0.40;;
9040;SDS011;4555;49.918;7.012;2022-09-03T03:04:50;0.73;;;0.40;;
9040;SDS011;4555;49.918;7.012;2022-09-03T03:07:15;0.23;;;0.23;;
9040;SDS011;4555;49.918;7.012;2022-09-03T03:09:41;0.20;;;0.20;;
9040;SDS011;4555;49.918;7.012;2022-09-03T03:12:07;0.20;;;0.20;;
9040;SDS011;4555;49.918;7.012;2022-09-03T03:14:34;0.50;;;0.50;;
9040;SDS011;4555;49.918;7.012;2022-09-03T03:17:00;0.10;;;0.10;;
9040;SDS011;4555;49.918;7.012;2022-09-03T03:19:25;1.10;;;0.70;;
9040;SDS011;4555;49.918;7.012;2022-09-03T03:21:51;0.30;;;0.30;;
9040;SDS011;4555;49.918;7.012;2022-09-03T03:24:16;0.30;;;0.30;;
9040;SDS011;4555;49.918;7.012;2022-09-03T03:26:42;0.17;;;0.17;;
9040;SDS011;4555;49.918;7.012;2022-09-03T03:29:09;0.30;;;0.20;;
9040;SDS011;4555;49.918;7.012;2022-09-03T03:31:41;0.30;;;0.20;;
9040;SDS011;4555;49.918;7.012;2022-09-03T03:34:07;0.27;;;0.27;;
9040;SDS011;4555;49.918;7.012;2022-09-03T03:36:33;0.20;;;0.20;;
9040;SDS011;4555;49.918;7.012;2022-09-03T03:38:59;1.10;;;0.20;;
9040;SDS011;4555;49.918;7.012;2022-09-03T03:41:26;0.30;;;0.30;;
9040;SDS011;4555;49.918;7.012;2022-09-03T03:43:58;0.27;;;0.27;;
9040;SDS011;4555;49.918;7.012;2022-09-03T03:46:28;0.40;;;0.13;;
9040;SDS011;4555;49.918;7.012;2022-09-03T03:48:58;0.30;;;0.30;;
9040;SDS011;4555;49.918;7.012;2022-09-03T03:51:24;0.20;;;0.20;;
9040;SDS011;4555;49.918;7.012;2022-09-03T03:53:52;0.43;;;0.43;;
9040;SDS011;4555;49.918;7.012;2022-09-03T03:56:20;0.00;;;0.00;;
9040;SDS011;4555;49.918;7.012;2022-09-03T03:58:47;0.43;;;0.43;;
9040;SDS011;4555;49.918;7.012;2022-09-03T04:01:14;0.27;;;0.27;;
9040;SDS011;4555;49.918;7.012;2022-09-03T04:03:42;0.10;;;0.10;;
9040;SDS011;4555;49.918;7.012;2022-09-03T04:06:08;0.20;;;0.20;;
9040;SDS011;4555;49.918;7.012;2022-09-03T04:08:37;0.20;;;0.20;;
9040;SDS011;4555;49.918;7.012;2022-09-03T04:11:05;0.10;;;0.10;;
9040;SDS011;4555;49.918;7.012;2022-09-03T04:13:35;0.10;;;0.10;;
9040;SDS011;4555;49.918;7.012;2022-09-03T04:16:06;0.27;;;0.27;;
9040;SDS011;4555;49.918;7.012;2022-09-03T04:18:33;0.13;;;0.13;;
9040;SDS011;4555;49.918;7.012;2022-09-03T04:21:01;1.40;;;0.70;;
9040;SDS011;4555;49.918;7.012;2022-09-03T04:23:29;0.30;;;0.30;;
9040;SDS011;4555;49.918;7.012;2022-09-03T04:25:55;0.20;;;0.20;;
9040;SDS011;4555;49.918;7.012;2022-09-03T04:28:21;0.30;;;0.30;;
9040;SDS011;4555;49.918;7.012;2022-09-03T04:30:47;0.27;;;0.27;;
9040;SDS011;4555;49.918;7.012;2022-09-03T04:33:12;0.00;;;0.00;;
9040;SDS011;4555;49.918;7.012;2022-09-03T04:35:38;0.30;;;0.30;;
9040;SDS011;4555;49.918;7.012;2022-09-03T04:38:05;0.23;;;0.23;;
9040;SDS011;4555;49.918;7.012;2022-09-03T04:40:31;0.10;;;0.10;;
9040;SDS011;4555;49.918;7.012;2022-09-03T04:42:58;0.10;;;0.10;;
9040;SDS011;4555;49.918;7.012;2022-09-03T04:45:24;0.20;;;0.20;;
9040;SDS011;4555;49.918;7.012;2022-09-03T04:48:00;0.20;;;0.20;;
9040;SDS011;4555;49.918;7.012;2022-09-03T04:50:27;0.13;;;0.13;;
9040;SDS011;4555;49.918;7.012;2022-09-03T04:53:01;0.20;;;0.20;;
9040;SDS011;4555;49.918;7.012;2022-09-03T04:55:32;0.27;;;0.27;;
9040;SDS011;4555;49.918;7.012;2022-09-03T04:57:59;0.00;;;0.00;;
9040;SDS011;4555;49.918;7.012;2022-09-03T05:00:25;0.20;;;0.10;;
9040;SDS011;4555;49.918;7.012;2022-09-03T05:02:50;0.33;;;0.33;;
9040;SDS011;4555;49.918;7.012;2022-09-03T05:05:16;0.30;;;0.30;;
9040;SDS011;4555;49.918;7.012;2022-09-03T05:07:42;0.20;;;0.20;;
9040;SDS011;4555;49.918;7.012;2022-09-03T05:10:09;0.20;;;0.20;;
9040;SDS011;4555;49.918;7.012;2022-09-03T05:12:37;1.13;;;0.30;;
9040;SDS011;4555;49.918;7.012;2022-09-03T05:15:03;0.23;;;0.23;;
9040;SDS011;4555;49.918;7.012;2022-09-03T05:17:30;0.20;;;0.20;;
9040;SDS011;4555;49.918;7.012;2022-09-03T05:19:56;0.20;;;0.20;;
9040;SDS011;4555;49.918;7.012;2022-09-03T05:22:22;0.73;;;0.70;;
9040;SDS011;4555;49.918;7.012;2022-09-03T05:24:47;0.33;;;0.33;;
9040;SDS011;4555;49.918;7.012;2022-09-03T05:27:14;0.30;;;0.30;;
9040;SDS011;4555;49.918;7.012;2022-09-03T05:29:43;0.30;;;0.30;;
9040;SDS011;4555;49.918;7.012;2022-09-03T05:32:09;0.20;;;0.20;;
9040;SDS011;4555;49.918;7.012;2022-09-03T05:34:39;0.20;;;0.20;;
9040;SDS011;4555;49.918;7.012;2022-09-03T05:37:05;0.27;;;0.27;;
9040;SDS011;4555;49.918;7.012;2022-09-03T05:39:30;0.20;;;0.20;;
9040;SDS011;4555;49.918;7.012;2022-09-03T05:41:56;0.30;;;0.30;;
9040;SDS011;4555;49.918;7.012;2022-09-03T05:44:22;0.30;;;0.30;;
9040;SDS011;4555;49.918;7.012;2022-09-03T05:46:48;0.30;;;0.30;;
9040;SDS011;4555;49.918;7.012;2022-09-03T05:49:14;1.20;;;0.50;;
9040;SDS011;4555;49.918;7.012;2022-09-03T05:51:40;0.40;;;0.40;;
9040;SDS011;4555;49.918;7.012;2022-09-03T05:54:07;0.40;;;0.30;;
9040;SDS011;4555;49.918;7.012;2022-09-03T05:56:34;0.10;;;0.10;;
9040;SDS011;4555;49.918;7.012;2022-09-03T05:59:03;0.10;;;0.10;;
9040;SDS011;4555;49.918;7.012;2022-09-03T06:01:40;0.10;;;0.10;;
9040;SDS011;4555;49.918;7.012;2022-09-03T06:04:11;0.20;;;0.20;;
9040;SDS011;4555;49.918;7.012;2022-09-03T06:06:42;0.13;;;0.13;;
9040;SDS011;4555;49.918;7.012;2022-09-03T06:09:09;0.40;;;0.40;;
9040;SDS011;4555;49.918;7.012;2022-09-03T06:11:38;1.53;;;0.50;;
9040;SDS011;4555;49.918;7.012;2022-09-03T06:14:05;0.30;;;0.30;;
9040;SDS011;4555;49.918;7.012;2022-09-03T06:16:33;0.47;;;0.33;;
9040;SDS011;4555;49.918;7.012;2022-09-03T06:19:01;0.20;;;0.20;;
9040;SDS011;4555;49.918;7.012;2022-09-03T06:21:33;0.60;;;0.47;;
9040;SDS011;4555;49.918;7.012;2022-09-03T06:24:00;0.20;;;0.20;;
9040;SDS011;4555;49.918;7.012;2022-09-03T06:26:27;0.37;;;0.37;;
9040;SDS011;4555;49.918;7.012;2022-09-03T06:28:53;0.30;;;0.30;;
9040;SDS011;4555;49.918;7.012;2022-09-03T06:31:20;0.53;;;0.53;;
9040;SDS011;4555;49.918;7.012;2022-09-03T06:33:47;0.20;;;0.20;;
9040;SDS011;4555;49.918;7.012;2022-09-03T06:36:14;0.30;;;0.30;;
9040;SDS011;4555;49.918;7.012;2022-09-03T06:38:41;0.30;;;0.30;;
9040;SDS011;4555;49.918;7.012;2022-09-03T06:41:10;0.33;;;0.33;;
9040;SDS011;4555;49.918;7.012;2022-09-03T06:43:38;0.20;;;0.20;;
9040;SDS011;4555;49.918;7.012;2022-09-03T06:46:06;0.40;;;0.40;;
9040;SDS011;4555;49.918;7.012;2022-09-03T06:48:37;0.33;;;0.33;;
9040;SDS011;4555;49.918;7.012;2022-09-03T06:51:05;0.23;;;0.23;;
9040;SDS011;4555;49.918;7.012;2022-09-03T06:53:35;0.20;;;0.20;;
9040;SDS011;4555;49.918;7.012;2022-09-03T06:56:03;0.50;;;0.50;;
9040;SDS011;4555;49.918;7.012;2022-09-03T06:58:32;0.20;;;0.20;;
9040;SDS011;4555;49.918;7.012;2022-09-03T07:03:41;0.53;;;0.53;;
9040;SDS011;4555;49.918;7.012;2022-09-03T07:06:12;0.30;;;0.30;;
9040;SDS011;4555;49.918;7.012;2022-09-03T07:08:39;0.37;;;0.37;;
9040;SDS011;4555;49.918;7.012;2022-09-03T07:11:07;0.20;;;0.20;;
9040;SDS011;4555;49.918;7.012;2022-09-03T07:13:35;0.30;;;0.30;;
9040;SDS011;4555;49.918;7.012;2022-09-03T07:16:05;0.20;;;0.20;;
9040;SDS011;4555;49.918;7.012;2022-09-03T07:18:32;0.23;;;0.23;;
9040;SDS011;4555;49.918;7.012;2022-09-03T07:21:03;0.53;;;0.30;;
9040;SDS011;4555;49.918;7.012;2022-09-03T07:23:33;0.77;;;0.77;;
9040;SDS011;4555;49.918;7.012;2022-09-03T07:26:01;0.20;;;0.20;;
9040;SDS011;4555;49.918;7.012;2022-09-03T07:28:33;0.37;;;0.37;;
9040;SDS011;4555;49.918;7.012;2022-09-03T07:31:02;0.20;;;0.20;;
9040;SDS011;4555;49.918;7.012;2022-09-03T07:33:29;0.57;;;0.57;;
9040;SDS011;4555;49.918;7.012;2022-09-03T07:36:00;0.40;;;0.40;;
9040;SDS011;4555;49.918;7.012;2022-09-03T07:38:31;0.23;;;0.23;;
9040;SDS011;4555;49.918;7.012;2022-09-03T07:40:58;0.60;;;0.60;;
9040;SDS011;4555;49.918;7.012;2022-09-03T07:43:28;0.60;;;0.60;;
9040;SDS011;4555;49.918;7.012;2022-09-03T07:45:58;0.33;;;0.33;;
9040;SDS011;4555;49.918;7.012;2022-09-03T07:48:25;0.33;;;0.33;;
9040;SDS011;4555;49.918;7.012;2022-09-03T07:50:51;0.30;;;0.30;;
9040;SDS011;4555;49.918;7.012;2022-09-03T07:53:18;0.50;;;0.50;;
9040;SDS011;4555;49.918;7.012;2022-09-03T07:55:47;0.53;;;0.53;;
9040;SDS011;4555;49.918;7.012;2022-09-03T07:58:13;0.50;;;0.50;;
9040;SDS011;4555;49.918;7.012;2022-09-03T08:00:39;0.50;;;0.50;;
9040;SDS011;4555;49.918;7.012;2022-09-03T08:03:05;0.40;;;0.40;;
9040;SDS011;4555;49.918;7.012;2022-09-03T08:05:33;0.53;;;0.53;;
9040;SDS011;4555;49.918;7.012;2022-09-03T08:08:01;0.60;;;0.60;;
9040;SDS011;4555;49.918;7.012;2022-09-03T08:10:32;0.33;;;0.33;;
9040;SDS011;4555;49.918;7.012;2022-09-03T08:12:59;0.37;;;0.37;;
9040;SDS011;4555;49.918;7.012;2022-09-03T08:15:25;1.60;;;0.50;;
9040;SDS011;4555;49.918;7.012;2022-09-03T08:17:51;0.33;;;0.33;;
9040;SDS011;4555;49.918;7.012;2022-09-03T08:20:18;0.70;;;0.70;;
9040;SDS011;4555;49.918;7.012;2022-09-03T08:22:44;0.50;;;0.50;;
9040;SDS011;4555;49.918;7.012;2022-09-03T08:25:10;0.47;;;0.47;;
9040;SDS011;4555;49.918;7.012;2022-09-03T08:27:35;0.47;;;0.47;;
9040;SDS011;4555;49.918;7.012;2022-09-03T08:30:01;1.50;;;0.90;;
9040;SDS011;4555;49.918;7.012;2022-09-03T08:32:28;0.93;;;0.70;;
9040;SDS011;4555;49.918;7.012;2022-09-03T08:34:54;0.50;;;0.50;;
9040;SDS011;4555;49.918;7.012;2022-09-03T08:37:20;0.53;;;0.53;;
9040;SDS011;4555;49.918;7.012;2022-09-03T08:39:46;1.53;;;0.60;;
9040;SDS011;4555;49.918;7.012;2022-09-03T08:45:01;0.50;;;0.50;;
9040;SDS011;4555;49.918;7.012;2022-09-03T08:47:32;0.40;;;0.40;;
9040;SDS011;4555;49.918;7.012;2022-09-03T08:50:14;0.53;;;0.53;;
9040;SDS011;4555;49.918;7.012;2022-09-03T08:58:02;0.70;;;0.70;;
9040;SDS011;4555;49.918;7.012;2022-09-03T09:01:14;0.30;;;0.30;;
9040;SDS011;4555;49.918;7.012;2022-09-03T09:11:47;1.27;;;1.20;;
9040;SDS011;4555;49.918;7.012;2022-09-03T09:22:34;0.50;;;0.50;;
9040;SDS011;4555;49.918;7.012;2022-09-03T09:25:15;0.80;;;0.80;;
9040;SDS011;4555;49.918;7.012;2022-09-03T09:30:20;0.67;;;0.67;;
9040;SDS011;4555;49.918;7.012;2022-09-03T09:32:45;0.70;;;0.70;;
9040;SDS011;4555;49.918;7.012;2022-09-03T09:35:11;0.63;;;0.63;;
9040;SDS011;4555;49.918;7.012;2022-09-03T09:37:49;0.80;;;0.77;;
9040;SDS011;4555;49.918;7.012;2022-09-03T09:40:24;0.43;;;0.43;;
9040;SDS011;4555;49.918;7.012;2022-09-03T09:43:01;0.47;;;0.47;;
9040;SDS011;4555;49.918;7.012;2022-09-03T09:45:43;0.47;;;0.47;;
9040;SDS011;4555;49.918;7.012;2022-09-03T09:50:46;0.60;;;0.60;;
9040;SDS011;4555;49.918;7.012;2022-09-03T09:53:12;1.10;;;1.00;;
9040;SDS011;4555;49.918;7.012;2022-09-03T09:55:48;1.03;;;1.03;;
9040;SDS011;4555;49.918;7.012;2022-09-03T09:58:17;0.40;;;0.40;;
9040;SDS011;4555;49.918;7.012;2022-09-03T10:01:00;1.27;;;0.83;;
9040;SDS011;4555;49.918;7.012;2022-09-03T10:03:27;0.37;;;0.37;;
9040;SDS011;4555;49.918;7.012;2022-09-03T10:06:03;0.70;;;0.70;;
9040;SDS011;4555;49.918;7.012;2022-09-03T10:08:49;1.10;;;1.10;;
9040;SDS011;4555;49.918;7.012;2022-09-03T10:11:16;0.90;;;0.90;;
9040;SDS011;4555;49.918;7.012;2022-09-03T10:13:44;0.47;;;0.47;;
9040;SDS011;4555;49.918;7.012;2022-09-03T10:18:54;0.50;;;0.50;;
9040;SDS011;4555;49.918;7.012;2022-09-03T10:24:00;0.57;;;0.57;;
9040;SDS011;4555;49.918;7.012;2022-09-03T10:26:53;3.23;;;0.80;;
9040;SDS011;4555;49.918;7.012;2022-09-03T10:29:20;0.70;;;0.70;;
9040;SDS011;4555;49.918;7.012;2022-09-03T10:37:35;0.70;;;0.70;;
9040;SDS011;4555;49.918;7.012;2022-09-03T10:40:35;0.63;;;0.63;;
9040;SDS011;4555;49.918;7.012;2022-09-03T10:43:15;0.60;;;0.60;;
9040;SDS011;4555;49.918;7.012;2022-09-03T10:46:10;0.60;;;0.60;;
9040;SDS011;4555;49.918;7.012;2022-09-03T10:51:39;0.87;;;0.87;;
9040;SDS011;4555;49.918;7.012;2022-09-03T10:56:49;0.63;;;0.63;;
9040;SDS011;4555;49.918;7.012;2022-09-03T11:07:29;3.83;;;1.40;;
9040;SDS011;4555;49.918;7.012;2022-09-03T11:13:38;1.20;;;1.20;;
9040;SDS011;4555;49.918;7.012;2022-09-03T11:21:11;1.00;;;1.00;;
9040;SDS011;4555;49.918;7.012;2022-09-03T11:23:43;0.70;;;0.70;;
9040;SDS011;4555;49.918;7.012;2022-09-03T11:26:12;0.87;;;0.87;;
9040;SDS011;4555;49.918;7.012;2022-09-03T11:34:13;0.60;;;0.60;;
9040;SDS011;4555;49.918;7.012;2022-09-03T11:36:41;0.70;;;0.70;;
9040;SDS011;4555;49.918;7.012;2022-09-03T11:39:17;1.30;;;1.30;;
9040;SDS011;4555;49.918;7.012;2022-09-03T11:41:59;1.00;;;1.00;;
9040;SDS011;4555;49.918;7.012;2022-09-03T11:44:36;0.80;;;0.80;;
9040;SDS011;4555;49.918;7.012;2022-09-03T11:47:23;0.77;;;0.77;;
9040;SDS011;4555;49.918;7.012;2022-09-03T11:50:34;2.27;;;1.13;;
9040;SDS011;4555;49.918;7.012;2022-09-03T11:53:20;0.80;;;0.80;;
9040;SDS011;4555;49.918;7.012;2022-09-03T11:55:59;0.77;;;0.77;;
9040;SDS011;4555;49.918;7.012;2022-09-03T11:58:32;1.03;;;1.03;;
9040;SDS011;4555;49.918;7.012;2022-09-03T12:01:01;1.23;;;1.23;;
9040;SDS011;4555;49.918;7.012;2022-09-03T12:03:41;0.80;;;0.80;;
9040;SDS011;4555;49.918;7.012;2022-09-03T12:08:55;2.47;;;0.80;;
9040;SDS011;4555;49.918;7.012;2022-09-03T12:11:38;0.93;;;0.93;;
9040;SDS011;4555;49.918;7.012;2022-09-03T12:14:21;0.70;;;0.70;;
9040;SDS011;4555;49.918;7.012;2022-09-03T12:17:11;0.70;;;0.70;;
9040;SDS011;4555;49.918;7.012;2022-09-03T12:19:53;0.60;;;0.60;;
9040;SDS011;4555;49.918;7.012;2022-09-03T12:22:21;0.70;;;0.70;;
9040;SDS011;4555;49.918;7.012;2022-09-03T12:24:49;0.70;;;0.70;;
9040;SDS011;4555;49.918;7.012;2022-09-03T12:27:25;0.87;;;0.87;;
9040;SDS011;4555;49.918;7.012;2022-09-03T12:29:56;1.17;;;1.07;;
9040;SDS011;4555;49.918;7.012;2022-09-03T12:32:27;0.83;;;0.83;;
9040;SDS011;4555;49.918;7.012;2022-09-03T12:34:56;0.67;;;0.67;;
9040;SDS011;4555;49.918;7.012;2022-09-03T12:37:23;0.80;;;0.80;;
9040;SDS011;4555;49.918;7.012;2022-09-03T12:39:51;1.50;;;0.93;;
9040;SDS011;4555;49.918;7.012;2022-09-03T12:42:27;0.80;;;0.80;;
9040;SDS011;4555;49.918;7.012;2022-09-03T12:44:55;0.67;;;0.67;;
9040;SDS011;4555;49.918;7.012;2022-09-03T12:47:29;0.77;;;0.77;;
9040;SDS011;4555;49.918;7.012;2022-09-03T12:50:03;0.67;;;0.67;;
9040;SDS011;4555;49.918;7.012;2022-09-03T12:57:46;0.93;;;0.93;;
9040;SDS011;4555;49.918;7.012;2022-09-03T13:00:17;0.40;;;0.40;;
9040;SDS011;4555;49.918;7.012;2022-09-03T13:05:20;0.83;;;0.83;;
9040;SDS011;4555;49.918;7.012;2022-09-03T13:07:54;0.90;;;0.90;;
9040;SDS011;4555;49.918;7.012;2022-09-03T13:10:29;0.60;;;0.60;;
9040;SDS011;4555;49.918;7.012;2022-09-03T13:13:01;0.97;;;0.97;;
9040;SDS011;4555;49.918;7.012;2022-09-03T13:22:05;0.70;;;0.70;;
9040;SDS011;4555;49.918;7.012;2022-09-03T13:27:36;1.13;;;1.13;;
9040;SDS011;4555;49.918;7.012;2022-09-03T13:30:14;1.53;;;0.77;;
9040;SDS011;4555;49.918;7.012;2022-09-03T13:32:46;0.73;;;0.73;;
9040;SDS011;4555;49.918;7.012;2022-09-03T13:38:08;1.07;;;1.07;;
9040;SDS011;4555;49.918;7.012;2022-09-03T13:40:52;0.87;;;0.87;;
9040;SDS011;4555;49.918;7.012;2022-09-03T13:46:39;1.80;;;0.70;;
9040;SDS011;4555;49.918;7.012;2022-09-03T13:49:41;0.40;;;0.40;;
9040;SDS011;4555;49.918;7.012;2022-09-03T13:55:36;0.50;;;0.50;;
9040;SDS011;4555;49.918;7.012;2022-09-03T13:58:23;0.50;;;0.50;;
9040;SDS011;4555;49.918;7.012;2022-09-03T14:03:31;0.60;;;0.60;;
9040;SDS011;4555;49.918;7.012;2022-09-03T14:06:12;0.53;;;0.53;;
9040;SDS011;4555;49.918;7.012;2022-09-03T14:09:11;0.40;;;0.40;;
9040;SDS011;4555;49.918;7.012;2022-09-03T14:12:09;2.53;;;0.80;;
9040;SDS011;4555;49.918;7.012;2022-09-03T14:20:30;0.20;;;0.20;;
9040;SDS011;4555;49.918;7.012;2022-09-03T14:26:02;0.33;;;0.33;;
9040;SDS011;4555;49.918;7.012;2022-09-03T14:28:39;0.47;;;0.47;;
9040;SDS011;4555;49.918;7.012;2022-09-03T14:31:29;0.40;;;0.40;;
9040;SDS011;4555;49.918;7.012;2022-09-03T14:34:12;0.93;;;0.70;;
9040;SDS011;4555;49.918;7.012;2022-09-03T14:36:55;0.67;;;0.60;;
9040;SDS011;4555;49.918;7.012;2022-09-03T14:39:54;0.70;;;0.70;;
9040;SDS011;4555;49.918;7.012;2022-09-03T14:59:22;1.10;;;1.00;;
9040;SDS011;4555;49.918;7.012;2022-09-03T15:04:38;0.73;;;0.73;;
9040;SDS011;4555;49.918;7.012;2022-09-03T15:13:19;0.50;;;0.50;;
9040;SDS011;4555;49.918;7.012;2022-09-03T15:15:53;0.50;;;0.50;;
9040;SDS011;4555;49.918;7.012;2022-09-03T15:21:48;0.53;;;0.53;;
9040;SDS011;4555;49.918;7.012;2022-09-03T15:27:34;0.53;;;0.53;;
9040;SDS011;4555;49.918;7.012;2022-09-03T15:30:21;0.40;;;0.40;;
9040;SDS011;4555;49.918;7.012;2022-09-03T15:38:07;0.53;;;0.53;;
9040;SDS011;4555;49.918;7.012;2022-09-03T15:43:24;0.40;;;0.40;;
9040;SDS011;4555;49.918;7.012;2022-09-03T15:45:54;0.60;;;0.60;;
9040;SDS011;4555;49.918;7.012;2022-09-03T15:51:45;0.50;;;0.50;;
9040;SDS011;4555;49.918;7.012;2022-09-03T15:54:15;0.37;;;0.37;;
9040;SDS011;4555;49.918;7.012;2022-09-03T15:57:05;0.60;;;0.60;;
9040;SDS011;4555;49.918;7.012;2022-09-03T15:59:50;0.90;;;0.90;;
9040;SDS011;4555;49.918;7.012;2022-09-03T16:02:33;0.50;;;0.50;;
9040;SDS011;4555;49.918;7.012;2022-09-03T16:05:10;0.37;;;0.30;;
9040;SDS011;4555;49.918;7.012;2022-09-03T16:07:40;0.20;;;0.20;;
9040;SDS011;4555;49.918;7.012;2022-09-03T16:10:31;0.20;;;0.20;;
9040;SDS011;4555;49.918;7.012;2022-09-03T16:13:17;0.20;;;0.20;;
9040;SDS011;4555;49.918;7.012;2022-09-03T16:16:04;1.00;;;0.20;;
9040;SDS011;4555;49.918;7.012;2022-09-03T16:18:41;0.50;;;0.50;;
9040;SDS011;4555;49.918;7.012;2022-09-03T16:24:16;0.20;;;0.20;;
9040;SDS011;4555;49.918;7.012;2022-09-03T16:26:53;0.20;;;0.20;;
9040;SDS011;4555;49.918;7.012;2022-09-03T16:29:28;0.10;;;0.10;;
9040;SDS011;4555;49.918;7.012;2022-09-03T16:35:06;0.10;;;0.10;;
9040;SDS011;4555;49.918;7.012;2022-09-03T16:40:50;0.40;;;0.40;;
9040;SDS011;4555;49.918;7.012;2022-09-03T16:45:57;0.20;;;0.20;;
9040;SDS011;4555;49.918;7.012;2022-09-03T16:49:21;0.10;;;0.10;;
9040;SDS011;4555;49.918;7.012;2022-09-03T16:51:42;0.20;;;0.20;;
9040;SDS011;4555;49.918;7.012;2022-09-03T16:54:16;0.20;;;0.20;;
9040;SDS011;4555;49.918;7.012;2022-09-03T16:56:47;0.17;;;0.17;;
9040;SDS011;4555;49.918;7.012;2022-09-03T17:12:19;0.50;;;0.50;;
9040;SDS011;4555;49.918;7.012;2022-09-03T17:20:29;0.20;;;0.20;;
9040;SDS011;4555;49.918;7.012;2022-09-03T17:25:54;0.10;;;0.10;;
9040;SDS011;4555;49.918;7.012;2022-09-03T17:42:16;0.37;;;0.30;;
9040;SDS011;4555;49.918;7.012;2022-09-03T17:48:46;0.23;;;0.23;;
9040;SDS011;4555;49.918;7.012;2022-09-03T17:59:29;0.30;;;0.30;;
9040;SDS011;4555;49.918;7.012;2022-09-03T18:02:07;0.50;;;0.50;;
9040;SDS011;4555;49.918;7.012;2022-09-03T18:12:37;0.47;;;0.47;;
9040;SDS011;4555;49.918;7.012;2022-09-03T18:15:11;0.40;;;0.40;;
9040;SDS011;4555;49.918;7.012;2022-09-03T18:17:45;2.00;;;0.60;;
9040;SDS011;4555;49.918;7.012;2022-09-03T18:20:26;0.20;;;0.20;;
9040;SDS011;4555;49.918;7.012;2022-09-03T18:23:24;0.30;;;0.30;;
9040;SDS011;4555;49.918;7.012;2022-09-03T18:26:25;1.13;;;0.40;;
9040;SDS011;4555;49.918;7.012;2022-09-03T18:29:19;0.40;;;0.40;;
9040;SDS011;4555;49.918;7.012;2022-09-03T18:32:25;0.13;;;0.13;;
9040;SDS011;4555;49.918;7.012;2022-09-03T18:35:09;0.30;;;0.30;;
9040;SDS011;4555;49.918;7.012;2022-09-03T18:37:54;1.00;;;0.60;;
9040;SDS011;4555;49.918;7.012;2022-09-03T18:40:42;0.50;;;0.50;;
9040;SDS011;4555;49.918;7.012;2022-09-03T18:43:54;0.47;;;0.47;;
9040;SDS011;4555;49.918;7.012;2022-09-03T18:46:52;0.40;;;0.40;;
9040;SDS011;4555;49.918;7.012;2022-09-03T18:50:33;0.50;;;0.50;;
9040;SDS011;4555;49.918;7.012;2022-09-03T18:52:58;0.53;;;0.53;;
9040;SDS011;4555;49.918;7.012;2022-09-03T19:05:38;0.43;;;0.43;;
9040;SDS011;4555;49.918;7.012;2022-09-03T19:14:47;0.40;;;0.40;;
9040;SDS011;4555;49.918;7.012;2022-09-03T19:20:33;0.60;;;0.60;;
9040;SDS011;4555;49.918;7.012;2022-09-03T19:23:19;1.10;;;1.10;;
9040;SDS011;4555;49.918;7.012;2022-09-03T19:26:20;0.60;;;0.60;;
9040;SDS011;4555;49.918;7.012;2022-09-03T19:29:37;0.23;;;0.23;;
9040;SDS011;4555;49.918;7.012;2022-09-03T19:32:35;0.50;;;0.50;;
9040;SDS011;4555;49.918;7.012;2022-09-03T19:38:14;0.40;;;0.40;;
9040;SDS011;4555;49.918;7.012;2022-09-03T19:41:29;0.30;;;0.30;;
9040;SDS011;4555;49.918;7.012;2022-09-03T19:50:43;0.63;;;0.63;;
9040;SDS011;4555;49.918;7.012;2022-09-03T19:53:39;1.00;;;0.77;;
9040;SDS011;4555;49.918;7.012;2022-09-03T19:56:26;0.47;;;0.47;;
9040;SDS011;4555;49.918;7.012;2022-09-03T19:59:12;0.57;;;0.57;;
9040;SDS011;4555;49.918;7.012;2022-09-03T20:02:02;0.70;;;0.70;;
9040;SDS011;4555;49.918;7.012;2022-09-03T20:04:50;0.53;;;0.53;;
9040;SDS011;4555;49.918;7.012;2022-09-03T20:07:39;0.50;;;0.50;;
9040;SDS011;4555;49.918;7.012;2022-09-03T20:10:23;0.40;;;0.40;;
9040;SDS011;4555;49.918;7.012;2022-09-03T20:13:06;0.50;;;0.50;;
9040;SDS011;4555;49.918;7.012;2022-09-03T20:33:05;0.40;;;0.40;;
9040;SDS011;4555;49.918;7.012;2022-09-03T20:38:41;0.50;;;0.50;;
9040;SDS011;4555;49.918;7.012;2022-09-03T20:51:38;0.60;;;0.60;;
9040;SDS011;4555;49.918;7.012;2022-09-03T20:54:24;0.60;;;0.60;;
9040;SDS011;4555;49.918;7.012;2022-09-03T21:18:32;0.87;;;0.73;;
9040;SDS011;4555;49.918;7.012;2022-09-03T21:21:11;0.50;;;0.50;;
9040;SDS011;4555;49.918;7.012;2022-09-03T21:24:04;0.60;;;0.60;;
9040;SDS011;4555;49.918;7.012;2022-09-03T21:26:39;0.50;;;0.50;;
9040;SDS011;4555;49.918;7.012;2022-09-03T21:34:30;0.50;;;0.50;;
9040;SDS011;4555;49.918;7.012;2022-09-03T21:37:03;0.30;;;0.30;;
9040;SDS011;4555;49.918;7.012;2022-09-03T21:42:23;0.47;;;0.47;;
9040;SDS011;4555;49.918;7.012;2022-09-03T21:45:09;0.37;;;0.37;;
9040;SDS011;4555;49.918;7.012;2022-09-03T21:48:21;0.40;;;0.40;;
9040;SDS011;4555;49.918;7.012;2022-09-03T21:50:38;0.20;;;0.20;;
9040;SDS011;4555;49.918;7.012;2022-09-03T21:53:31;0.20;;;0.20;;
9040;SDS011;4555;49.918;7.012;2022-09-03T21:59:16;0.27;;;0.27;;
9040;SDS011;4555;49.918;7.012;2022-09-03T22:04:57;0.57;;;0.57;;
9040;SDS011;4555;49.918;7.012;2022-09-03T22:16:09;0.40;;;0.40;;
9040;SDS011;4555;49.918;7.012;2022-09-03T22:18:41;0.37;;;0.37;;